createdAt,value
2017-10-26T00:00:10.716Z,52.50
2017-10-26T00:02:38.935Z,52.40
2017-10-26T00:05:07.192Z,52.40
2017-10-26T00:07:35.503Z,52.40
2017-10-26T00:10:03.736Z,52.40
2017-10-26T00:12:31.978Z,52.40
2017-10-26T00:15:00.205Z,52.40
2017-10-26T00:17:28.436Z,52.40
2017-10-26T00:19:57.413Z,52.50
2017-10-26T00:22:25.615Z,52.50
2017-10-26T00:24:54.571Z,52.50
2017-10-26T00:27:22.785Z,52.50
2017-10-26T00:29:51.819Z,52.50
2017-10-26T00:32:20.033Z,52.40
2017-10-26T00:34:49.032Z,52.30
2017-10-26T00:37:17.265Z,52.30
2017-10-26T00:39:45.465Z,52.30
2017-10-26T00:42:14.392Z,52.30
2017-10-26T00:44:42.858Z,52.30
2017-10-26T00:47:11.934Z,52.40
2017-10-26T00:49:40.975Z,52.50
2017-10-26T00:52:09.216Z,52.40
2017-10-26T00:54:38.195Z,52.50
2017-10-26T00:57:06.435Z,52.40
2017-10-26T00:59:34.657Z,52.50
2017-10-26T01:02:03.672Z,52.50
2017-10-26T01:04:31.862Z,52.40
2017-10-26T01:07:00.064Z,52.30
2017-10-26T01:09:28.447Z,52.30
2017-10-26T01:11:57.489Z,52.30
2017-10-26T01:14:25.742Z,52.30
2017-10-26T01:16:54.718Z,52.40
2017-10-26T01:19:22.954Z,52.30
2017-10-26T01:21:51.177Z,52.90
2017-10-26T01:24:19.448Z,52.20
2017-10-26T01:26:49.128Z,52.10
2017-10-26T01:29:17.398Z,52.10
2017-10-26T01:31:45.765Z,52.10
2017-10-26T01:34:13.948Z,52.10
2017-10-26T01:36:42.192Z,52.10
2017-10-26T01:39:10.452Z,52.20
2017-10-26T01:41:38.665Z,52.20
2017-10-26T01:44:06.858Z,52.20
2017-10-26T01:46:35.056Z,52.30
2017-10-26T01:49:04.028Z,52.40
2017-10-26T01:51:33.027Z,52.40
2017-10-26T01:54:02.027Z,52.30
2017-10-26T01:56:31.020Z,52.30
2017-10-26T01:58:59.217Z,52.30
2017-10-26T02:01:27.438Z,52.30
2017-10-26T02:03:55.700Z,52.30
2017-10-26T02:06:23.908Z,52.20
2017-10-26T02:08:52.099Z,52.20
2017-10-26T02:11:21.092Z,52.20
2017-10-26T02:13:50.200Z,52.20
2017-10-26T02:16:18.465Z,52.20
2017-10-26T02:18:46.712Z,52.30
2017-10-26T02:21:14.940Z,52.30
2017-10-26T02:23:43.140Z,52.30
2017-10-26T02:26:11.340Z,52.40
2017-10-26T02:28:57.245Z,52.40
2017-10-26T02:31:37.895Z,52.30
2017-10-26T02:34:06.122Z,52.30
2017-10-26T02:36:35.880Z,52.40
2017-10-26T02:39:04.365Z,52.30
2017-10-26T02:44:41.167Z,52.30
2017-10-26T02:47:26.522Z,52.40
2017-10-26T02:50:17.467Z,52.40
2017-10-26T02:52:46.053Z,52.40
2017-10-26T02:58:21.845Z,52.40
2017-10-26T03:00:50.368Z,52.40
2017-10-26T03:03:32.741Z,52.30
2017-10-26T03:09:46.966Z,52.30
2017-10-26T03:15:00.690Z,52.20
2017-10-26T03:17:29.043Z,52.30
2017-10-26T03:19:57.260Z,52.40
2017-10-26T03:22:25.460Z,52.40
2017-10-26T03:24:53.690Z,52.30
2017-10-26T03:27:21.899Z,52.40
2017-10-26T03:29:50.227Z,52.30
2017-10-26T03:32:18.427Z,52.30
2017-10-26T03:34:47.523Z,52.20
2017-10-26T03:37:15.707Z,52.10
2017-10-26T03:39:44.674Z,52.30
2017-10-26T03:42:12.880Z,52.30
2017-10-26T03:44:41.109Z,52.30
2017-10-26T03:47:09.315Z,52.20
2017-10-26T03:49:37.507Z,52.20
2017-10-26T03:52:05.737Z,52.20
2017-10-26T03:54:33.924Z,52.10
2017-10-26T03:57:02.123Z,52.20
2017-10-26T03:59:30.375Z,52.10
2017-10-26T04:01:59.373Z,52.20
2017-10-26T04:04:28.348Z,52.30
2017-10-26T04:06:56.633Z,52.30
2017-10-26T04:09:25.631Z,52.30
2017-10-26T04:11:54.575Z,52.20
2017-10-26T04:14:22.792Z,52.10
2017-10-26T04:16:51.772Z,52.20
2017-10-26T04:19:19.976Z,52.10
2017-10-26T04:21:48.173Z,52.10
2017-10-26T04:24:16.383Z,52.10
2017-10-26T04:26:44.587Z,52.10
2017-10-26T04:29:13.563Z,52.20
2017-10-26T04:31:41.819Z,52.20
2017-10-26T04:34:10.033Z,52.30
2017-10-26T04:36:38.987Z,52.40
2017-10-26T04:39:07.203Z,52.30
2017-10-26T04:41:35.419Z,52.30
2017-10-26T04:44:03.616Z,52.30
2017-10-26T04:46:31.840Z,52.30
2017-10-26T04:49:00.104Z,52.20
2017-10-26T04:51:28.291Z,52.30
2017-10-26T04:53:56.523Z,52.30
2017-10-26T04:56:24.781Z,52.30
2017-10-26T04:58:53.023Z,52.30
2017-10-26T05:01:21.239Z,52.20
2017-10-26T05:03:49.460Z,52.20
2017-10-26T05:06:17.707Z,52.20
2017-10-26T05:08:46.777Z,52.10
2017-10-26T05:11:14.999Z,52.10
2017-10-26T05:13:43.223Z,52.10
2017-10-26T05:16:11.428Z,52.00
2017-10-26T05:18:39.663Z,51.90
2017-10-26T05:21:07.915Z,51.90
2017-10-26T05:23:36.155Z,51.80
2017-10-26T05:26:04.445Z,51.70
2017-10-26T05:28:32.699Z,51.60
2017-10-26T05:31:01.718Z,51.50
2017-10-26T05:33:30.071Z,51.40
2017-10-26T05:35:58.351Z,51.40
2017-10-26T05:38:26.587Z,51.40
2017-10-26T05:40:54.790Z,51.50
2017-10-26T05:43:24.296Z,51.60
2017-10-26T05:45:53.459Z,51.40
2017-10-26T05:48:21.664Z,51.40
2017-10-26T05:50:50.654Z,51.30
2017-10-26T05:53:18.929Z,51.30
2017-10-26T05:55:47.927Z,51.20
2017-10-26T05:58:16.897Z,51.10
2017-10-26T06:00:45.101Z,51.10
2017-10-26T06:03:13.307Z,51.20
2017-10-26T06:05:41.565Z,51.10
2017-10-26T06:08:09.830Z,51.10
2017-10-26T06:10:38.041Z,51.10
2017-10-26T06:13:06.245Z,51.10
2017-10-26T06:15:35.268Z,51.10
2017-10-26T06:18:03.491Z,51.00
2017-10-26T06:20:31.728Z,51.00
2017-10-26T06:22:59.980Z,51.00
2017-10-26T06:25:28.951Z,51.00
2017-10-26T06:27:57.152Z,51.00
2017-10-26T06:30:25.370Z,51.60
2017-10-26T06:32:53.620Z,50.90
2017-10-26T06:35:21.844Z,50.90
2017-10-26T06:37:50.068Z,50.90
2017-10-26T06:40:18.271Z,50.80
2017-10-26T06:42:46.518Z,50.90
2017-10-26T06:45:14.789Z,50.80
2017-10-26T06:47:43.029Z,50.90
2017-10-26T06:50:11.984Z,50.80
2017-10-26T06:52:40.204Z,50.80
2017-10-26T06:55:09.196Z,50.90
2017-10-26T06:57:37.434Z,50.80
2017-10-26T07:00:05.693Z,50.80
2017-10-26T07:02:33.895Z,50.80
2017-10-26T07:05:02.151Z,50.80
2017-10-26T07:07:30.418Z,50.80
2017-10-26T07:09:58.672Z,50.80
2017-10-26T07:12:26.892Z,50.90
2017-10-26T07:14:55.192Z,50.90
2017-10-26T07:17:24.252Z,50.90
2017-10-26T07:19:52.996Z,50.90
2017-10-26T07:22:21.224Z,50.90
2017-10-26T07:24:50.456Z,50.90
2017-10-26T07:27:18.719Z,50.80
2017-10-26T07:29:47.672Z,50.90
2017-10-26T07:32:15.928Z,50.80
2017-10-26T07:34:44.131Z,50.90
2017-10-26T07:37:12.321Z,50.90
2017-10-26T07:39:41.364Z,50.90
2017-10-26T07:42:09.558Z,50.80
2017-10-26T07:44:37.799Z,50.80
2017-10-26T07:47:06.009Z,50.80
2017-10-26T07:49:34.195Z,50.80
2017-10-26T07:52:02.453Z,50.90
2017-10-26T07:54:30.637Z,50.90
2017-10-26T07:56:58.863Z,50.80
2017-10-26T07:59:27.123Z,50.90
2017-10-26T08:01:56.342Z,50.80
2017-10-26T08:04:24.572Z,50.80
2017-10-26T08:06:52.747Z,50.90
2017-10-26T08:09:21.014Z,50.90
2017-10-26T08:11:50.967Z,50.90
2017-10-26T08:14:19.180Z,50.90
2017-10-26T08:16:47.383Z,50.90
2017-10-26T08:19:15.645Z,50.90
2017-10-26T08:21:43.858Z,50.90
2017-10-26T08:24:12.043Z,50.90
2017-10-26T08:26:40.262Z,50.90
2017-10-26T08:29:08.452Z,50.90
2017-10-26T08:31:36.665Z,50.90
2017-10-26T08:34:04.901Z,51.00
2017-10-26T08:36:33.863Z,51.00
2017-10-26T08:39:02.118Z,51.00
2017-10-26T08:41:30.337Z,50.90
2017-10-26T08:43:59.305Z,51.10
2017-10-26T08:46:27.496Z,51.00
2017-10-26T08:48:55.748Z,51.10
2017-10-26T08:51:23.974Z,51.10
2017-10-26T08:53:52.926Z,51.10
2017-10-26T08:56:21.147Z,51.00
2017-10-26T08:58:49.337Z,51.10
2017-10-26T09:01:17.557Z,51.00
2017-10-26T09:03:45.767Z,51.10
2017-10-26T09:06:13.972Z,51.10
2017-10-26T09:08:42.210Z,51.20
2017-10-26T09:11:10.438Z,51.10
2017-10-26T09:13:38.727Z,51.10
2017-10-26T09:16:06.992Z,51.20
2017-10-26T09:18:35.222Z,51.20
2017-10-26T09:21:03.390Z,51.20
2017-10-26T09:23:31.663Z,51.20
2017-10-26T09:25:59.945Z,51.20
2017-10-26T09:28:28.143Z,51.20
2017-10-26T09:30:56.363Z,51.20
2017-10-26T09:33:43.022Z,51.60
2017-10-26T09:36:11.355Z,51.20
2017-10-26T09:38:41.355Z,51.30
2017-10-26T09:41:09.673Z,51.30
2017-10-26T09:43:37.948Z,51.30
2017-10-26T09:46:06.186Z,51.30
2017-10-26T09:48:35.145Z,51.70
2017-10-26T09:51:03.450Z,51.40
2017-10-26T09:53:31.662Z,51.30
2017-10-26T09:56:00.058Z,51.20
2017-10-26T09:58:28.330Z,51.40
2017-10-26T10:00:56.624Z,51.40
2017-10-26T10:03:24.894Z,51.50
2017-10-26T10:05:53.097Z,51.50
2017-10-26T10:08:21.352Z,51.60
2017-10-26T10:10:49.560Z,51.60
2017-10-26T10:13:18.511Z,51.60
2017-10-26T10:15:46.710Z,51.50
2017-10-26T10:18:15.184Z,51.60
2017-10-26T10:20:43.419Z,51.60
2017-10-26T10:23:11.664Z,51.60
2017-10-26T10:25:40.692Z,51.60
2017-10-26T10:28:08.969Z,51.60
2017-10-26T10:30:37.205Z,51.70
2017-10-26T10:33:06.166Z,51.70
2017-10-26T10:35:34.357Z,51.70
2017-10-26T10:38:04.273Z,51.80
2017-10-26T10:40:33.246Z,51.80
2017-10-26T10:43:01.467Z,52.40
2017-10-26T10:45:29.700Z,51.80
2017-10-26T10:47:57.959Z,51.90
2017-10-26T10:50:26.167Z,51.90
2017-10-26T10:52:55.152Z,51.90
2017-10-26T10:55:24.123Z,52.00
2017-10-26T10:57:52.343Z,52.00
2017-10-26T11:00:26.065Z,52.00
2017-10-26T11:02:54.311Z,52.00
2017-10-26T11:05:22.519Z,52.00
2017-10-26T11:07:50.791Z,52.00
2017-10-26T11:10:19.002Z,52.00
2017-10-26T11:12:47.224Z,52.00
2017-10-26T11:15:15.410Z,52.00
2017-10-26T11:17:43.608Z,52.10
2017-10-26T11:20:11.820Z,52.00
2017-10-26T11:22:40.871Z,52.10
2017-10-26T11:25:09.128Z,52.00
2017-10-26T11:27:37.326Z,52.10
2017-10-26T11:30:05.553Z,52.10
2017-10-26T11:32:33.803Z,52.00
2017-10-26T11:35:08.717Z,52.00
2017-10-26T11:37:36.918Z,52.00
2017-10-26T11:40:05.225Z,52.10
2017-10-26T11:42:33.515Z,52.10
2017-10-26T11:45:01.725Z,52.10
2017-10-26T11:47:29.986Z,52.10
2017-10-26T11:49:58.969Z,52.10
2017-10-26T11:52:27.197Z,52.10
2017-10-26T11:54:55.407Z,51.80
2017-10-26T11:57:23.624Z,52.10
2017-10-26T11:59:51.842Z,52.80
2017-10-26T12:02:20.052Z,52.10
2017-10-26T12:04:49.011Z,52.20
2017-10-26T12:07:17.207Z,52.10
2017-10-26T12:09:45.439Z,52.10
2017-10-26T12:12:13.650Z,52.10
2017-10-26T12:14:41.856Z,52.10
2017-10-26T12:17:10.168Z,52.10
2017-10-26T12:19:38.350Z,52.10
2017-10-26T12:22:06.570Z,52.00
2017-10-26T12:24:34.774Z,52.10
2017-10-26T12:27:03.030Z,52.00
2017-10-26T12:29:31.268Z,51.80
2017-10-26T12:31:59.497Z,51.90
2017-10-26T12:34:27.842Z,51.90
2017-10-26T12:36:56.064Z,51.80
2017-10-26T12:39:24.382Z,51.70
2017-10-26T12:41:53.511Z,51.80
2017-10-26T12:44:21.692Z,51.70
2017-10-26T12:46:49.898Z,51.70
2017-10-26T12:49:19.160Z,51.70
2017-10-26T12:51:47.416Z,51.80
2017-10-26T12:54:15.586Z,51.70
2017-10-26T12:56:43.883Z,51.70
2017-10-26T12:59:12.082Z,51.70
2017-10-26T13:01:40.291Z,51.70
2017-10-26T13:04:09.381Z,51.60
2017-10-26T13:06:37.588Z,51.50
2017-10-26T13:09:05.827Z,51.50
2017-10-26T13:11:34.002Z,51.40
2017-10-26T13:14:03.127Z,51.50
2017-10-26T13:16:31.394Z,51.40
2017-10-26T13:18:59.597Z,51.40
2017-10-26T13:21:27.875Z,51.30
2017-10-26T13:23:56.072Z,51.40
2017-10-26T13:26:24.410Z,51.40
2017-10-26T13:28:52.722Z,51.40
2017-10-26T13:31:20.961Z,51.40
2017-10-26T13:33:49.360Z,51.40
2017-10-26T13:36:17.624Z,51.50
2017-10-26T13:38:45.898Z,51.50
2017-10-26T13:41:14.100Z,51.50
2017-10-26T13:43:42.399Z,51.40
2017-10-26T13:46:10.573Z,51.40
2017-10-26T13:48:38.843Z,51.50
2017-10-26T13:51:07.056Z,51.50
2017-10-26T13:53:35.258Z,51.50
2017-10-26T13:56:04.361Z,51.50
2017-10-26T13:58:32.580Z,51.50
2017-10-26T14:01:01.619Z,51.40
2017-10-26T14:03:29.803Z,51.40
2017-10-26T14:05:58.015Z,51.40
2017-10-26T14:08:27.102Z,51.40
2017-10-26T14:10:56.823Z,51.50
2017-10-26T14:13:25.797Z,51.50
2017-10-26T14:15:54.785Z,51.40
2017-10-26T14:18:23.792Z,51.40
2017-10-26T14:20:52.872Z,51.40
2017-10-26T14:23:21.921Z,51.40
2017-10-26T14:25:50.192Z,51.40
2017-10-26T14:28:18.528Z,51.40
2017-10-26T14:30:47.567Z,51.50
2017-10-26T14:33:15.815Z,51.40
2017-10-26T14:35:44.047Z,51.40
2017-10-26T14:38:12.250Z,51.40
2017-10-26T14:40:40.461Z,51.40
2017-10-26T14:43:08.659Z,51.40
2017-10-26T14:45:36.944Z,51.40
2017-10-26T14:48:05.919Z,51.40
2017-10-26T14:50:34.141Z,51.40
2017-10-26T14:53:03.116Z,51.30
2017-10-26T14:55:31.314Z,51.20
2017-10-26T14:57:59.631Z,51.30
2017-10-26T15:00:27.862Z,51.30
2017-10-26T15:02:56.192Z,51.30
2017-10-26T15:05:24.380Z,51.20
2017-10-26T15:07:52.664Z,51.20
2017-10-26T15:10:20.881Z,51.10
2017-10-26T15:12:49.192Z,51.10
2017-10-26T15:15:17.383Z,51.00
2017-10-26T15:17:45.631Z,51.00
2017-10-26T15:20:13.852Z,51.00
2017-10-26T15:22:42.849Z,51.10
2017-10-26T15:25:11.163Z,51.10
2017-10-26T15:27:39.399Z,51.20
2017-10-26T15:30:08.421Z,51.00
2017-10-26T15:32:36.635Z,51.00
2017-10-26T15:35:04.836Z,50.90
2017-10-26T15:37:33.845Z,50.90
2017-10-26T15:40:02.156Z,51.00
2017-10-26T15:42:30.407Z,50.90
2017-10-26T15:44:58.655Z,50.90
2017-10-26T15:47:26.899Z,51.00
2017-10-26T15:49:55.116Z,50.90
2017-10-26T15:52:23.367Z,50.90
2017-10-26T15:54:53.164Z,50.90
2017-10-26T15:57:21.364Z,50.90
2017-10-26T15:59:50.308Z,50.90
2017-10-26T16:02:19.265Z,50.90
2017-10-26T16:04:48.601Z,50.90
2017-10-26T16:07:16.819Z,50.80
2017-10-26T16:09:45.774Z,50.90
2017-10-26T16:12:13.977Z,50.90
2017-10-26T16:14:42.937Z,50.90
2017-10-26T16:17:11.137Z,50.90
2017-10-26T16:19:40.111Z,51.00
2017-10-26T16:22:08.303Z,50.90
2017-10-26T16:24:37.259Z,50.90
2017-10-26T16:27:05.453Z,50.90
2017-10-26T16:29:33.644Z,50.90
2017-10-26T16:32:02.616Z,50.90
2017-10-26T16:34:30.831Z,50.90
2017-10-26T16:36:59.144Z,50.90
2017-10-26T16:39:27.364Z,50.90
2017-10-26T16:41:55.597Z,50.90
2017-10-26T16:44:23.797Z,50.90
2017-10-26T16:46:52.011Z,50.90
2017-10-26T16:49:20.200Z,50.80
2017-10-26T16:51:48.398Z,50.80
2017-10-26T16:54:16.644Z,50.80
2017-10-26T16:56:44.822Z,50.80
2017-10-26T16:59:13.053Z,50.80
2017-10-26T17:01:41.996Z,50.80
2017-10-26T17:04:10.288Z,50.70
2017-10-26T17:06:38.528Z,50.90
2017-10-26T17:09:06.844Z,50.70
2017-10-26T17:11:35.028Z,50.80
2017-10-26T17:14:03.220Z,50.80
2017-10-26T17:16:32.215Z,50.70
2017-10-26T17:19:01.236Z,50.70
2017-10-26T17:21:29.467Z,50.70
2017-10-26T17:23:58.477Z,50.80
2017-10-26T17:26:27.441Z,50.70
2017-10-26T17:28:55.732Z,50.70
2017-10-26T17:31:24.765Z,50.80
2017-10-26T17:33:52.991Z,50.70
2017-10-26T17:36:21.204Z,50.80
2017-10-26T17:38:49.525Z,50.80
2017-10-26T17:41:17.728Z,50.80
2017-10-26T17:43:46.698Z,51.40
2017-10-26T17:46:14.992Z,50.80
2017-10-26T17:48:43.969Z,50.90
2017-10-26T17:51:12.138Z,50.80
2017-10-26T17:53:40.336Z,50.80
2017-10-26T17:56:09.561Z,50.80
2017-10-26T17:58:37.747Z,50.80
2017-10-26T18:01:06.030Z,50.70
2017-10-26T18:03:34.243Z,50.70
2017-10-26T18:06:03.236Z,50.80
2017-10-26T18:08:32.223Z,50.90
2017-10-26T18:11:00.489Z,50.90
2017-10-26T18:13:28.707Z,50.50
2017-10-26T18:15:56.988Z,50.80
2017-10-26T18:18:25.186Z,50.70
2017-10-26T18:20:53.391Z,50.70
2017-10-26T18:23:21.635Z,50.70
2017-10-26T18:25:49.819Z,50.70
2017-10-26T18:28:18.107Z,50.70
2017-10-26T18:30:46.313Z,50.80
2017-10-26T18:33:15.271Z,50.80
2017-10-26T18:35:43.451Z,50.70
2017-10-26T18:38:11.706Z,50.80
2017-10-26T18:40:39.911Z,50.80
2017-10-26T18:43:08.869Z,50.80
2017-10-26T18:45:37.114Z,50.80
2017-10-26T18:48:05.299Z,50.80
2017-10-26T18:50:33.495Z,50.80
2017-10-26T18:53:02.573Z,50.80
2017-10-26T18:55:30.793Z,51.10
2017-10-26T18:57:59.792Z,50.90
2017-10-26T19:00:28.793Z,50.80
2017-10-26T19:02:57.057Z,50.70
2017-10-26T19:05:26.024Z,50.70
2017-10-26T19:07:54.227Z,50.60
2017-10-26T19:10:23.283Z,50.80
2017-10-26T19:12:51.495Z,51.40
2017-10-26T19:15:20.461Z,50.80
2017-10-26T19:17:48.647Z,50.70
2017-10-26T19:20:17.612Z,51.00
2017-10-26T19:22:45.831Z,50.70
2017-10-26T19:25:14.017Z,50.70
2017-10-26T19:27:42.212Z,50.60
2017-10-26T19:30:11.341Z,50.60
2017-10-26T19:32:39.548Z,50.70
2017-10-26T19:35:07.836Z,50.70
2017-10-26T19:37:36.538Z,50.70
2017-10-26T19:40:04.735Z,50.70
2017-10-26T19:42:32.976Z,50.70
2017-10-26T19:45:01.284Z,50.70
2017-10-26T19:47:29.515Z,50.70
2017-10-26T19:49:57.708Z,50.70
2017-10-26T19:52:26.026Z,50.50
2017-10-26T19:54:54.342Z,50.50
2017-10-26T19:57:22.581Z,50.60
2017-10-26T19:59:51.595Z,50.70
2017-10-26T20:02:20.564Z,50.70
2017-10-26T20:04:48.800Z,50.60
2017-10-26T20:07:17.121Z,50.70
2017-10-26T20:09:45.309Z,50.70
2017-10-26T20:12:14.280Z,50.70
2017-10-26T20:14:42.471Z,51.30
2017-10-26T20:17:11.496Z,50.70
2017-10-26T20:19:39.708Z,50.60
2017-10-26T20:22:07.859Z,50.60
2017-10-26T20:24:36.979Z,50.60
2017-10-26T20:27:05.240Z,50.60
2017-10-26T20:29:33.433Z,50.60
2017-10-26T20:32:01.618Z,50.50
2017-10-26T20:34:30.595Z,50.70
2017-10-26T20:36:58.785Z,50.60
2017-10-26T20:39:27.761Z,50.60
2017-10-26T20:41:55.991Z,50.60
2017-10-26T20:44:24.232Z,50.60
2017-10-26T20:46:53.288Z,50.60
2017-10-26T20:52:27.543Z,50.50
2017-10-26T20:55:01.260Z,50.70
2017-10-26T20:57:35.816Z,50.70
2017-10-26T21:00:09.526Z,50.60
2017-10-26T21:02:43.203Z,50.60
2017-10-26T21:08:15.489Z,50.70
2017-10-26T21:10:49.172Z,50.70
2017-10-26T21:13:22.972Z,50.70
2017-10-26T21:15:51.984Z,50.80
2017-10-26T21:18:20.245Z,50.70
2017-10-26T21:20:49.212Z,50.90
2017-10-26T21:23:17.420Z,50.80
2017-10-26T21:25:46.395Z,50.80
2017-10-26T21:28:14.645Z,50.80
2017-10-26T21:30:48.150Z,50.80
2017-10-26T21:33:16.323Z,50.80
2017-10-26T21:35:44.530Z,50.70
2017-10-26T21:38:14.067Z,50.80
2017-10-26T21:40:42.311Z,50.70
2017-10-26T21:43:10.526Z,50.70
2017-10-26T21:45:39.553Z,50.80
2017-10-26T21:48:07.765Z,50.90
2017-10-26T21:50:35.955Z,50.70
2017-10-26T21:53:04.928Z,50.70
2017-10-26T21:55:33.116Z,50.70
2017-10-26T21:58:01.327Z,50.80
2017-10-26T22:00:29.528Z,50.80
2017-10-26T22:02:58.193Z,50.80
2017-10-26T22:05:26.503Z,50.80
2017-10-26T22:07:54.947Z,50.90
2017-10-26T22:10:23.160Z,50.90
2017-10-26T22:12:51.365Z,50.80
2017-10-26T22:15:19.585Z,50.80
2017-10-26T22:17:47.799Z,50.80
2017-10-26T22:20:16.785Z,50.90
2017-10-26T22:22:45.720Z,50.90
2017-10-26T22:25:14.690Z,51.00
2017-10-26T22:27:42.910Z,50.90
2017-10-26T22:30:11.171Z,50.90
2017-10-26T22:32:39.371Z,50.90
2017-10-26T22:35:07.633Z,51.00
2017-10-26T22:37:35.946Z,51.10
2017-10-26T22:40:04.935Z,51.40
2017-10-26T22:42:33.869Z,51.50
2017-10-26T22:45:02.176Z,51.50
2017-10-26T22:47:30.395Z,51.50
2017-10-26T22:49:58.660Z,51.50
2017-10-26T22:52:27.603Z,51.60
2017-10-26T22:54:55.973Z,51.60
2017-10-26T22:57:24.212Z,51.70
2017-10-26T22:59:52.396Z,51.60
2017-10-26T23:02:20.656Z,51.70
2017-10-26T23:04:48.836Z,51.60
2017-10-26T23:07:17.076Z,51.60
2017-10-26T23:09:45.303Z,51.60
2017-10-26T23:12:13.793Z,51.60
2017-10-26T23:14:42.272Z,51.60
2017-10-26T23:17:10.474Z,51.60
2017-10-26T23:19:38.681Z,51.50
2017-10-26T23:22:07.879Z,51.70
2017-10-26T23:24:36.905Z,51.70
2017-10-26T23:27:06.420Z,51.70
2017-10-26T23:29:34.698Z,51.60
2017-10-26T23:32:04.701Z,51.70
2017-10-26T23:34:33.133Z,51.70
2017-10-26T23:37:01.358Z,51.60
2017-10-26T23:39:29.556Z,51.60
2017-10-26T23:41:57.742Z,51.60
2017-10-26T23:44:25.914Z,51.60
2017-10-26T23:46:54.102Z,51.50
2017-10-26T23:49:23.066Z,51.60
2017-10-26T23:51:51.255Z,51.50
2017-10-26T23:54:19.459Z,51.50
2017-10-26T23:56:47.622Z,51.60
2017-10-26T23:59:16.628Z,51.70
